Terminal Aerodrome Forecast
Issued by NWS

Home | Current Version | Previous Version | Text Only | Print | Product List | Glossary On
Versions: 1 2 3 4 5 6 7 8 9 10 11 12 13 14 15 16 17 18 19 20 21 22 23 24 25 26 27
000
FTUS46 KSGX 232335
TAFSAN
TAF
KSAN 232335Z 2400/2506 31008KT P6SM -SHRA SCT035 BKN040 OVC090
      TEMPO 2400/2402 4SM -TSRA BKN020CB
     FM240500 29011KT P6SM VCSH SCT015 BKN035
     FM241400 28009KT P6SM -SHRA SCT015 BKN035
      TEMPO 2414/2418 3SM RA SCT010 BKN025
     FM241800 26007KT P6SM VCSH SCT015 BKN035
     FM250100 VRB04KT P6SM BKN040=

USA.gov is the U.S. government's official web portal to all federal, state and local government web resources and services.